Time;durP1;ratioP1;P1;durP2;ratioP2;P2;SDS_P1;SDS_P2;PMS_P1;PMS_P2;Temp;Humidity;BMP_temperature;BMP_pressure;BME280_temperature;BME280_humidity;BME280_pressure;Samples;Min_cycle;Max_cycle;Signal;HPM_P1;HPM_P2
2023/09/23 00:01:04;;;;;;;;;;;;;;;28.81;82.44;100876.81;5013920;28;70690;-37
2023/09/23 00:03:34;;;;;;;;;;;;;;;28.82;82.04;100875.78;5022518;28;65435;-36
2023/09/23 00:06:05;;;;;;;;;;;;;;;28.85;81.68;100883.47;5020628;28;70439;-37
2023/09/23 00:08:34;;;;;;;;;;;;;;;28.83;83.32;100880.13;5018365;28;66796;-37
2023/09/23 00:11:04;;;;;;;;;;;;;;;28.81;84.50;100889.50;5009486;28;69683;-37
2023/09/23 00:13:34;;;;;;;;;;;;;;;28.79;84.06;100878.06;4999901;28;65848;-37
2023/09/23 00:16:11;;;;;;;;;;;;;;;28.82;84.82;100883.88;5010259;28;70670;-37
2023/09/23 00:18:43;;;;;;;;;;;;;;;28.84;84.65;100887.22;5012232;28;65871;-36
2023/09/23 00:21:13;;;;;;;;;;;;;;;28.86;85.12;100895.94;5013890;28;70517;-36
2023/09/23 00:23:45;;;;;;;;;;;;;;;28.86;85.36;100890.53;5013068;28;66512;-36
2023/09/23 00:26:17;;;;;;;;;;;;;;;28.89;84.52;100890.13;5009898;28;69358;-37
2023/09/23 00:28:52;;;;;;;;;;;;;;;28.88;83.82;100883.03;5020546;28;66214;-37
2023/09/23 00:31:24;;;;;;;;;;;;;;;28.91;83.73;100877.22;5015014;28;70348;-38
2023/09/23 00:33:53;;;;;;;;;;;;;;;28.94;83.45;100892.19;5010423;28;67586;-38
2023/09/23 00:36:22;;;;;;;;;;;;;;;28.95;82.89;100889.28;4986317;28;70335;-37
2023/09/23 00:38:52;;;;;;;;;;;;;;;28.99;82.72;100888.88;5019500;28;66280;-37
2023/09/23 00:41:25;;;;;;;;;;;;;;;29.02;80.51;100883.88;5017833;28;70583;-37
2023/09/23 00:43:54;;;;;;;;;;;;;;;29.07;78.46;100892.22;5021102;28;66048;-37
2023/09/23 00:46:24;;;;;;;;;;;;;;;29.13;77.83;100887.84;5024125;28;70437;-38
2023/09/23 00:48:54;;;;;;;;;;;;;;;29.16;76.58;100887.44;4989137;28;66820;-37
2023/09/23 00:51:24;;;;;;;;;;;;;;;29.23;76.18;100890.97;5022259;28;69828;-37
2023/09/23 00:53:54;;;;;;;;;;;;;;;29.28;75.57;100893.88;5013565;28;65535;-37
2023/09/23 00:56:24;;;;;;;;;;;;;;;29.32;75.34;100895.13;5009168;28;70620;-37
2023/09/23 00:58:54;;;;;;;;;;;;;;;29.36;74.90;100895.53;5007343;28;66608;-44
2023/09/23 01:01:24;;;;;;;;;;;;;;;29.40;74.96;100902.19;5009160;28;69792;-37
2023/09/23 01:03:54;;;;;;;;;;;;;;;29.43;74.17;100898.25;5019550;28;66858;-37
2023/09/23 01:06:27;;;;;;;;;;;;;;;29.48;74.27;100903.84;4999378;28;70369;-38
2023/09/23 01:08:57;;;;;;;;;;;;;;;29.49;74.14;100911.72;5000532;28;65604;-36
2023/09/23 01:11:29;;;;;;;;;;;;;;;29.53;74.24;100912.97;5018988;28;70023;-37
2023/09/23 01:13:59;;;;;;;;;;;;;;;29.55;74.78;100915.47;5013723;28;66268;-36
2023/09/23 01:16:29;;;;;;;;;;;;;;;29.57;76.32;100919.63;5015998;28;69400;-36
2023/09/23 01:18:59;;;;;;;;;;;;;;;29.60;74.37;100913.78;5011789;28;65769;-36
2023/09/23 01:21:28;;;;;;;;;;;;;;;29.64;74.06;100918.81;4990849;28;70209;-36
2023/09/23 01:23:58;;;;;;;;;;;;;;;29.66;74.08;100914.84;5015897;28;66443;-37
2023/09/23 01:26:27;;;;;;;;;;;;;;;29.71;74.42;100914.22;5001414;28;70287;-37
2023/09/23 01:28:57;;;;;;;;;;;;;;;29.72;74.11;100916.69;5007204;28;66402;-37
2023/09/23 01:31:29;;;;;;;;;;;;;;;29.75;74.06;100915.44;5013484;28;70504;-37
2023/09/23 01:33:59;;;;;;;;;;;;;;;29.78;73.94;100915.03;4999192;28;65853;-36
2023/09/23 01:36:29;;;;;;;;;;;;;;;29.79;74.10;100912.13;5012636;28;70388;-38
2023/09/23 01:38:59;;;;;;;;;;;;;;;29.81;74.28;100918.16;5021891;28;65486;-36
2023/09/23 01:41:29;;;;;;;;;;;;;;;29.82;73.99;100911.69;4990614;28;70227;-37
2023/09/23 01:44:00;;;;;;;;;;;;;;;29.88;73.49;100917.28;5014452;28;66484;-39
2023/09/23 01:46:30;;;;;;;;;;;;;;;29.91;74.28;100919.56;4996077;28;70088;-37
2023/09/23 01:49:03;;;;;;;;;;;;;;;29.93;73.99;100918.31;5013035;28;66257;-38
2023/09/23 01:51:32;;;;;;;;;;;;;;;29.97;73.67;100918.72;5014624;28;70623;-36
2023/09/23 01:54:03;;;;;;;;;;;;;;;30.00;73.33;100923.69;5020289;28;65726;-38
2023/09/23 01:56:34;;;;;;;;;;;;;;;30.02;73.24;100927.03;5009318;28;70051;-37
2023/09/23 01:59:04;;;;;;;;;;;;;;;30.05;73.64;100918.47;5009075;28;67626;-38
2023/09/23 02:01:33;;;;;;;;;;;;;;;30.07;73.13;100927.22;5005396;28;69188;-37
2023/09/23 02:04:03;;;;;;;;;;;;;;;30.10;73.21;100926.78;5020035;28;66093;-37
2023/09/23 02:06:36;;;;;;;;;;;;;;;30.11;73.56;100931.13;5019354;28;70112;-36
2023/09/23 02:09:09;;;;;;;;;;;;;;;30.13;73.32;100934.47;5010229;28;66418;-37
2023/09/23 02:11:39;;;;;;;;;;;;;;;30.15;73.80;100926.97;5010859;28;70298;-37
2023/09/23 02:14:09;;;;;;;;;;;;;;;30.18;73.48;100937.38;5005568;28;66810;-37
2023/09/23 02:16:39;;;;;;;;;;;;;;;30.21;73.60;100934.22;5023065;28;69897;-37
2023/09/23 02:19:08;;;;;;;;;;;;;;;30.23;73.11;100934.06;5001158;28;66248;-37
2023/09/23 02:21:38;;;;;;;;;;;;;;;30.24;73.01;100925.72;5026002;28;69370;-37
2023/09/23 02:24:08;;;;;;;;;;;;;;;30.25;73.92;100924.66;5020591;28;66260;-36
2023/09/23 02:26:37;;;;;;;;;;;;;;;30.27;72.83;100929.88;5025770;28;69724;-36
2023/09/23 02:29:07;;;;;;;;;;;;;;;30.28;73.17;100935.06;5003910;28;68401;-35
2023/09/23 02:31:37;;;;;;;;;;;;;;;30.32;72.62;100937.34;5003680;28;69867;-36
2023/09/23 02:34:10;;;;;;;;;;;;;;;30.33;72.71;100929.00;5006595;28;66992;-37
2023/09/23 02:36:41;;;;;;;;;;;;;;;30.36;73.03;100931.28;5003651;28;70375;-37
2023/09/23 02:39:19;;;;;;;;;;;;;;;30.37;73.12;100927.53;5032090;28;68237;-37
2023/09/23 02:41:49;;;;;;;;;;;;;;;30.40;73.22;100929.00;5022455;28;70084;-36
2023/09/23 02:44:20;;;;;;;;;;;;;;;30.44;72.70;100935.63;5031288;28;66354;-36
2023/09/23 02:46:49;;;;;;;;;;;;;;;30.44;72.91;100924.78;4993156;28;69658;-38
2023/09/23 02:49:19;;;;;;;;;;;;;;;30.47;72.90;100918.94;5022727;28;66782;-37
2023/09/23 02:51:49;;;;;;;;;;;;;;;30.49;73.09;100925.78;5018830;28;71068;-37
2023/09/23 02:54:18;;;;;;;;;;;;;;;30.34;75.81;100917.16;5017906;28;65629;-39
2023/09/23 02:56:50;;;;;;;;;;;;;;;30.23;77.01;100912.41;5018049;28;69278;-36
2023/09/23 02:59:26;;;;;;;;;;;;;;;30.15;77.29;100909.91;4995510;28;66183;-37
2023/09/23 03:01:57;;;;;;;;;;;;;;;30.09;77.92;100911.59;5003199;28;70468;-37
2023/09/23 03:04:29;;;;;;;;;;;;;;;30.07;77.66;100910.97;5013885;28;66358;-36
2023/09/23 03:07:01;;;;;;;;;;;;;;;30.06;78.13;100912.00;4995170;28;70825;-36
2023/09/23 03:09:34;;;;;;;;;;;;;;;30.05;78.53;100907.66;5018844;28;66710;-36
2023/09/23 03:12:04;;;;;;;;;;;;;;;30.05;78.45;100910.34;4999377;28;70599;-37
2023/09/23 03:14:38;;;;;;;;;;;;;;;30.05;78.62;100911.19;5015275;28;65529;-37
2023/09/23 03:17:09;;;;;;;;;;;;;;;30.07;78.85;100913.69;4980630;28;70293;-36
2023/09/23 03:19:39;;;;;;;;;;;;;;;30.08;78.52;100901.81;5013980;28;65866;-37
2023/09/23 03:22:09;;;;;;;;;;;;;;;30.09;78.64;100899.94;5011983;28;70444;-37
2023/09/23 03:24:39;;;;;;;;;;;;;;;30.11;79.00;100887.03;5023450;28;65622;-39
2023/09/23 03:27:09;;;;;;;;;;;;;;;30.12;78.64;100889.53;5008936;28;70494;-36
2023/09/23 03:29:40;;;;;;;;;;;;;;;30.12;79.26;100884.13;4998621;28;66630;-37
2023/09/23 03:32:09;;;;;;;;;;;;;;;30.14;79.37;100887.44;5015555;28;69100;-37
2023/09/23 03:34:39;;;;;;;;;;;;;;;30.14;79.30;100882.00;5016125;28;67058;-36
2023/09/23 03:37:09;;;;;;;;;;;;;;;30.16;79.01;100888.03;5011455;28;70536;-36
2023/09/23 03:39:41;;;;;;;;;;;;;;;30.16;79.23;100898.88;5009899;28;66761;-37
2023/09/23 03:42:12;;;;;;;;;;;;;;;30.17;78.97;100884.31;5019238;28;70219;-37
2023/09/23 03:44:41;;;;;;;;;;;;;;;30.17;79.04;100876.19;5016768;28;66164;-37
2023/09/23 03:47:11;;;;;;;;;;;;;;;30.19;79.49;100875.97;5015399;28;68894;-37
2023/09/23 03:49:40;;;;;;;;;;;;;;;30.19;79.81;100871.38;5016381;28;67595;-36
2023/09/23 03:52:11;;;;;;;;;;;;;;;30.20;79.49;100875.75;5002059;28;70182;-35
2023/09/23 03:54:40;;;;;;;;;;;;;;;30.22;79.58;100873.69;5002063;28;66784;-38
2023/09/23 03:57:10;;;;;;;;;;;;;;;30.23;79.90;100875.38;4994899;28;70193;-36
2023/09/23 03:59:43;;;;;;;;;;;;;;;30.25;79.51;100873.25;4997407;28;60279;-38
2023/09/23 04:02:12;;;;;;;;;;;;;;;30.24;79.66;100866.19;4986001;28;69494;-37
2023/09/23 04:04:43;;;;;;;;;;;;;;;30.25;79.78;100861.59;4996388;28;66729;-37
2023/09/23 04:07:16;;;;;;;;;;;;;;;30.26;79.80;100857.88;4988565;28;70115;-37
2023/09/23 04:09:45;;;;;;;;;;;;;;;30.26;80.46;100847.88;4995995;28;66732;-35
2023/09/23 04:12:15;;;;;;;;;;;;;;;30.32;79.64;100856.16;5000757;28;70487;-36
2023/09/23 04:14:45;;;;;;;;;;;;;;;30.45;78.78;100850.66;5000263;28;65480;-36
2023/09/23 04:17:15;;;;;;;;;;;;;;;30.40;78.19;100826.16;4998318;28;69163;-36
2023/09/23 04:19:44;;;;;;;;;;;;;;;30.61;78.19;100843.88;4983613;28;66639;-36
2023/09/23 04:22:14;;;;;;;;;;;;;;;30.68;77.55;100833.84;5000510;28;70577;-37
2023/09/23 04:24:43;;;;;;;;;;;;;;;30.75;77.45;100836.50;4995472;28;65942;-37
2023/09/23 04:27:13;;;;;;;;;;;;;;;30.79;77.05;100829.59;4997289;28;68828;-37
2023/09/23 04:29:43;;;;;;;;;;;;;;;30.84;76.67;100818.94;4998183;28;66137;-36
2023/09/23 04:32:12;;;;;;;;;;;;;;;30.89;76.24;100813.69;4996984;28;69942;-36
2023/09/23 04:34:42;;;;;;;;;;;;;;;30.91;75.87;100803.47;4996882;28;67166;-38
2023/09/23 04:37:12;;;;;;;;;;;;;;;30.97;76.11;100804.47;4993338;28;70550;-37
2023/09/23 04:39:42;;;;;;;;;;;;;;;31.00;75.79;100783.16;5007114;28;65754;-36
2023/09/23 04:42:11;;;;;;;;;;;;;;;31.02;75.81;100781.06;5017824;28;69370;-37
2023/09/23 04:44:41;;;;;;;;;;;;;;;31.06;75.50;100773.31;5004884;28;65738;-37
2023/09/23 04:47:12;;;;;;;;;;;;;;;31.08;75.54;100772.03;5002242;28;69398;-36
2023/09/23 04:49:43;;;;;;;;;;;;;;;30.91;76.96;100768.25;5004792;28;66340;-37
2023/09/23 04:52:15;;;;;;;;;;;;;;;30.85;77.49;100785.41;5015228;28;69989;-36
2023/09/23 04:54:45;;;;;;;;;;;;;;;30.94;76.60;100770.53;5009169;28;66119;-41
2023/09/23 04:57:14;;;;;;;;;;;;;;;30.99;76.58;100765.28;5019126;28;69121;-37
2023/09/23 04:59:44;;;;;;;;;;;;;;;31.02;76.32;100748.56;5021654;28;66730;-37
2023/09/23 05:02:13;;;;;;;;;;;;;;;31.07;75.53;100748.72;5023883;28;70056;-37
2023/09/23 05:04:46;;;;;;;;;;;;;;;31.10;75.43;100742.84;5004787;28;66676;-37
2023/09/23 05:07:16;;;;;;;;;;;;;;;31.13;75.31;100733.44;4990854;28;69798;-36
2023/09/23 05:09:46;;;;;;;;;;;;;;;31.15;75.53;100734.88;5014836;28;65444;-36
2023/09/23 05:12:15;;;;;;;;;;;;;;;31.20;74.79;100744.19;5010831;28;70265;-36
2023/09/23 05:14:45;;;;;;;;;;;;;;;31.23;74.88;100738.31;5007516;28;66448;-36
2023/09/23 05:17:15;;;;;;;;;;;;;;;31.24;74.79;100729.16;5006700;28;70200;-36
2023/09/23 05:19:47;;;;;;;;;;;;;;;30.99;75.10;100689.41;5011517;28;65859;-37
2023/09/23 05:22:17;;;;;;;;;;;;;;;31.29;74.88;100732.03;5007649;28;70371;-37
2023/09/23 05:24:48;;;;;;;;;;;;;;;31.29;74.39;100726.59;5004735;28;66511;-37
2023/09/23 05:27:18;;;;;;;;;;;;;;;31.32;74.45;100718.00;5022418;28;70207;-38
2023/09/23 05:29:50;;;;;;;;;;;;;;;31.33;74.56;100708.81;5018044;28;66830;-37
2023/09/23 05:32:20;;;;;;;;;;;;;;;31.34;74.75;100707.75;5019548;28;69617;-37
2023/09/23 05:34:52;;;;;;;;;;;;;;;31.36;74.41;100705.69;5020461;28;66297;-37
2023/09/23 05:37:22;;;;;;;;;;;;;;;31.38;74.13;100706.28;5021222;28;70965;-36
2023/09/23 05:39:51;;;;;;;;;;;;;;;31.40;74.25;100701.47;5025075;28;66557;-40
2023/09/23 05:42:24;;;;;;;;;;;;;;;31.41;74.22;100695.00;5022159;28;69590;-36
2023/09/23 05:44:53;;;;;;;;;;;;;;;31.43;74.09;100690.19;5014712;28;66502;-37
2023/09/23 05:47:23;;;;;;;;;;;;;;;31.44;74.03;100680.16;5007116;28;71136;-37
2023/09/23 05:49:52;;;;;;;;;;;;;;;31.46;74.42;100667.22;5019848;28;66300;-37
2023/09/23 05:52:22;;;;;;;;;;;;;;;31.46;73.93;100654.47;5028332;28;70121;-37
2023/09/23 05:54:52;;;;;;;;;;;;;;;31.49;74.12;100648.59;5015262;28;66826;-36
2023/09/23 05:57:21;;;;;;;;;;;;;;;31.50;74.01;100647.53;5006084;28;70031;-37
2023/09/23 05:59:51;;;;;;;;;;;;;;;31.52;74.02;100639.16;5020994;28;65683;-36
2023/09/23 06:02:21;;;;;;;;;;;;;;;31.55;73.80;100639.53;5019861;28;70232;-37
2023/09/23 06:04:51;;;;;;;;;;;;;;;31.56;74.08;100638.47;5025656;28;65557;-36
2023/09/23 06:07:20;;;;;;;;;;;;;;;31.59;73.80;100629.03;5021195;28;70722;-37
2023/09/23 06:09:50;;;;;;;;;;;;;;;31.61;74.02;100622.31;5034795;28;66980;-37
2023/09/23 06:12:20;;;;;;;;;;;;;;;31.64;73.62;100625.66;5019774;28;69664;-37
2023/09/23 06:14:50;;;;;;;;;;;;;;;31.67;73.62;100619.75;5022836;28;66386;-38
2023/09/23 06:17:19;;;;;;;;;;;;;;;31.69;73.59;100606.81;5016222;28;70163;-37
2023/09/23 06:19:49;;;;;;;;;;;;;;;31.71;73.18;100604.69;5026043;28;66658;-37
2023/09/23 06:22:19;;;;;;;;;;;;;;;31.74;73.10;100604.22;5019870;28;69802;-38
2023/09/23 06:24:52;;;;;;;;;;;;;;;31.77;73.19;100603.75;5004803;28;65392;-35
2023/09/23 06:27:21;;;;;;;;;;;;;;;31.77;73.14;100595.63;5024027;28;69537;-37
2023/09/23 06:29:53;;;;;;;;;;;;;;;31.79;72.77;100597.03;4988152;28;64906;-36
2023/09/23 06:32:22;;;;;;;;;;;;;;;31.81;72.99;100596.78;5012746;28;69788;-35
2023/09/23 06:34:52;;;;;;;;;;;;;;;31.81;72.85;100594.91;5028007;28;66186;-36
2023/09/23 06:37:22;;;;;;;;;;;;;;;31.82;72.80;100585.72;5011996;28;69294;-36
2023/09/23 06:39:51;;;;;;;;;;;;;;;31.86;72.73;100585.25;5017955;28;65360;-36
2023/09/23 06:42:21;;;;;;;;;;;;;;;31.87;72.58;100581.47;5002318;28;70113;-36
2023/09/23 06:44:50;;;;;;;;;;;;;;;31.89;72.47;100580.16;5016755;28;65857;-37
2023/09/23 06:47:20;;;;;;;;;;;;;;;31.91;72.31;100578.09;5018636;28;69530;-36
2023/09/23 06:49:50;;;;;;;;;;;;;;;31.69;72.55;100587.81;5017607;28;65485;-37
2023/09/23 06:52:19;;;;;;;;;;;;;;;31.58;73.55;100590.25;5008474;28;70282;-38
2023/09/23 06:54:49;;;;;;;;;;;;;;;31.76;73.01;100575.81;5005617;28;66977;-36
2023/09/23 06:57:19;;;;;;;;;;;;;;;31.84;72.64;100577.34;5008112;28;70071;-37
2023/09/23 06:59:49;;;;;;;;;;;;;;;31.89;72.45;100573.94;5011418;28;65833;-37
2023/09/23 07:02:19;;;;;;;;;;;;;;;31.93;72.42;100577.84;5017477;28;70340;-37
2023/09/23 07:04:49;;;;;;;;;;;;;;;31.95;72.04;100568.41;4993670;28;65621;-36
2023/09/23 07:07:19;;;;;;;;;;;;;;;31.97;71.94;100569.00;5005349;28;69393;-37
2023/09/23 07:09:48;;;;;;;;;;;;;;;32.01;71.62;100564.78;5023087;28;66372;-37
2023/09/23 07:12:18;;;;;;;;;;;;;;;32.02;71.59;100566.41;5002228;28;69439;-37
2023/09/23 07:14:49;;;;;;;;;;;;;;;32.05;71.39;100562.41;5027709;28;65938;-36
2023/09/23 07:17:19;;;;;;;;;;;;;;;32.05;71.16;100555.09;5003706;28;69672;-38
2023/09/23 07:19:49;;;;;;;;;;;;;;;32.08;70.99;100539.41;5004556;28;65539;-37
2023/09/23 07:22:18;;;;;;;;;;;;;;;31.91;71.02;100537.41;5023390;28;69078;-37
2023/09/23 07:24:48;;;;;;;;;;;;;;;31.72;72.26;100527.69;5020323;28;66921;-37
2023/09/23 07:27:18;;;;;;;;;;;;;;;31.64;72.77;100528.03;5004764;28;69170;-37
2023/09/23 07:29:47;;;;;;;;;;;;;;;31.84;72.55;100523.09;5017812;28;66236;-37
2023/09/23 07:32:17;;;;;;;;;;;;;;;31.96;71.88;100521.25;5006570;28;70352;-37
2023/09/23 07:34:47;;;;;;;;;;;;;;;32.02;71.85;100509.44;5012027;28;66684;-37
2023/09/23 07:37:17;;;;;;;;;;;;;;;32.09;71.17;100503.88;5017817;28;70421;-37
2023/09/23 07:39:46;;;;;;;;;;;;;;;32.14;71.02;100495.03;5018462;28;64362;-36
2023/09/23 07:42:16;;;;;;;;;;;;;;;32.19;70.83;100487.00;5006767;28;69909;-38
2023/09/23 07:44:45;;;;;;;;;;;;;;;32.22;70.70;100471.06;5017357;28;66178;-39
2023/09/23 07:47:15;;;;;;;;;;;;;;;32.28;70.16;100463.84;5019402;28;70558;-38
2023/09/23 07:49:45;;;;;;;;;;;;;;;32.31;69.95;100468.81;5000974;28;65633;-36
2023/09/23 07:52:15;;;;;;;;;;;;;;;32.36;69.54;100466.19;5013127;28;70607;-37
2023/09/23 07:54:44;;;;;;;;;;;;;;;32.39;69.28;100460.28;5010557;28;65961;-36
2023/09/23 07:57:14;;;;;;;;;;;;;;;32.43;69.25;100466.91;5010699;28;69377;-37
2023/09/23 07:59:43;;;;;;;;;;;;;;;32.47;69.00;100476.22;5012761;28;66049;-38
2023/09/23 08:02:13;;;;;;;;;;;;;;;32.52;68.25;100469.25;4991925;28;70565;-37
2023/09/23 08:04:43;;;;;;;;;;;;;;;32.57;68.48;100472.91;5017882;28;66947;-36
2023/09/23 08:07:13;;;;;;;;;;;;;;;32.61;68.15;100478.66;5018251;28;69968;-38
2023/09/23 08:09:42;;;;;;;;;;;;;;;32.65;67.86;100472.53;5010992;28;67003;-36
2023/09/23 08:12:12;;;;;;;;;;;;;;;32.70;67.51;100472.59;5020547;28;70820;-37
2023/09/23 08:14:41;;;;;;;;;;;;;;;32.75;67.58;100469.16;5018832;28;66692;-38
2023/09/23 08:17:11;;;;;;;;;;;;;;;32.81;67.53;100473.63;5014532;28;70566;-36
2023/09/23 08:19:41;;;;;;;;;;;;;;;32.86;67.45;100471.00;5014032;28;65504;-37
2023/09/23 08:22:11;;;;;;;;;;;;;;;32.90;66.99;100460.47;5016869;28;70400;-37
2023/09/23 08:24:42;;;;;;;;;;;;;;;32.94;67.28;100462.44;5013394;28;66707;-36
2023/09/23 08:27:12;;;;;;;;;;;;;;;32.71;65.49;100447.09;4996867;28;70267;-37
2023/09/23 08:29:42;;;;;;;;;;;;;;;32.59;66.48;100448.22;5012871;28;67323;-37
2023/09/23 08:32:12;;;;;;;;;;;;;;;32.47;67.23;100440.94;5012638;28;69970;-36
2023/09/23 08:34:42;;;;;;;;;;;;;;;32.45;67.47;100426.75;5011438;28;65578;-37
2023/09/23 08:37:12;;;;;;;;;;;;;;;32.42;67.03;100427.22;5007131;28;70647;-36
2023/09/23 08:39:41;;;;;;;;;;;;;;;32.39;67.31;100433.13;5007004;28;65609;-37
2023/09/23 08:42:11;;;;;;;;;;;;;;;32.40;67.12;100426.66;5012720;28;70402;-37
2023/09/23 08:44:42;;;;;;;;;;;;;;;32.40;66.85;100434.81;5016478;28;65610;-37
2023/09/23 08:47:13;;;;;;;;;;;;;;;32.40;66.80;100448.38;5010107;28;70099;-37
2023/09/23 08:49:43;;;;;;;;;;;;;;;32.40;67.36;100451.09;4996384;28;66073;-38
2023/09/23 08:52:13;;;;;;;;;;;;;;;32.51;68.05;100462.16;5012851;28;70716;-37
2023/09/23 08:54:46;;;;;;;;;;;;;;;32.50;68.16;100472.22;5023003;28;67007;-37
2023/09/23 08:57:16;;;;;;;;;;;;;;;32.58;68.66;100484.59;5024724;28;69415;-36
2023/09/23 08:59:45;;;;;;;;;;;;;;;32.60;68.79;100487.91;5017055;28;65698;-36
2023/09/23 09:02:22;;;;;;;;;;;;;;;32.63;67.92;100484.69;4994381;28;70082;-38
2023/09/23 09:04:54;;;;;;;;;;;;;;;32.63;67.22;100488.22;5010732;28;66739;-38
2023/09/23 09:07:25;;;;;;;;;;;;;;;32.69;66.99;100489.16;5010749;28;69895;-39
2023/09/23 09:09:54;;;;;;;;;;;;;;;32.64;67.77;100487.16;5011120;28;66810;-37
2023/09/23 09:12:24;;;;;;;;;;;;;;;32.64;68.54;100492.56;5022621;28;70105;-37
2023/09/23 09:14:53;;;;;;;;;;;;;;;32.63;67.36;100487.41;4991373;28;66195;-37
2023/09/23 09:17:23;;;;;;;;;;;;;;;32.63;67.85;100503.69;5016179;28;70166;-37
2023/09/23 09:19:53;;;;;;;;;;;;;;;32.64;67.90;100506.16;5017767;28;65517;-38
2023/09/23 09:22:23;;;;;;;;;;;;;;;32.71;68.22;100512.28;5016748;28;70167;-37
2023/09/23 09:24:52;;;;;;;;;;;;;;;32.66;68.55;100514.06;5013972;28;67077;-37
2023/09/23 09:27:22;;;;;;;;;;;;;;;32.67;69.36;100515.72;5012123;28;69406;-38
2023/09/23 09:29:51;;;;;;;;;;;;;;;32.66;68.70;100520.31;5015477;28;66208;-37
2023/09/23 09:32:40;;;;;;;;;;;;;;;32.69;68.48;100519.03;4982628;28;69998;-39
2023/09/23 09:35:13;;;;;;;;;;;;;;;32.80;69.02;100515.44;5015664;28;66527;-38
2023/09/23 09:37:44;;;;;;;;;;;;;;;33.10;68.03;100525.28;5021111;28;69807;-36
2023/09/23 09:40:17;;;;;;;;;;;;;;;33.27;67.27;100537.00;5009085;28;66552;-39
2023/09/23 09:42:53;;;;;;;;;;;;;;;33.38;67.29;100544.25;4999727;28;70444;-37
2023/09/23 09:45:24;;;;;;;;;;;;;;;33.46;67.77;100550.34;4991554;28;66624;-36
2023/09/23 09:47:57;;;;;;;;;;;;;;;33.24;68.95;100548.34;4999947;28;71027;-38
2023/09/23 09:50:28;;;;;;;;;;;;;;;32.97;70.00;100548.09;5017012;28;66624;-37
2023/09/23 09:52:57;;;;;;;;;;;;;;;32.88;70.89;100550.38;5000188;28;69801;-36
2023/09/23 09:55:27;;;;;;;;;;;;;;;32.73;70.79;100555.47;4998881;28;66355;-37
2023/09/23 09:57:57;;;;;;;;;;;;;;;32.67;71.48;100564.59;5018183;28;70093;-37
2023/09/23 10:00:39;;;;;;;;;;;;;;;32.59;72.44;100575.84;5012776;28;66680;-39
2023/09/23 10:03:11;;;;;;;;;;;;;;;32.54;72.26;100575.72;5003525;28;70452;-38
2023/09/23 10:05:44;;;;;;;;;;;;;;;32.43;72.74;100567.34;4999065;28;65338;-38
2023/09/23 10:08:15;;;;;;;;;;;;;;;32.40;73.20;100559.69;5019421;28;70496;-41
2023/09/23 10:10:47;;;;;;;;;;;;;;;32.41;72.79;100564.03;5019794;28;66472;-38
2023/09/23 10:13:18;;;;;;;;;;;;;;;32.35;72.31;100569.59;5010797;28;69134;-38
2023/09/23 10:15:48;;;;;;;;;;;;;;;32.31;72.58;100571.13;5017663;28;66118;-41
2023/09/23 10:18:17;;;;;;;;;;;;;;;32.27;72.55;100576.22;5020113;28;70428;-37
2023/09/23 10:20:49;;;;;;;;;;;;;;;32.22;72.59;100581.50;5019058;28;65882;-37
2023/09/23 10:23:19;;;;;;;;;;;;;;;32.19;72.67;100585.53;5007149;28;69494;-37
2023/09/23 10:25:51;;;;;;;;;;;;;;;32.15;73.10;100578.09;5011527;28;65883;-39
2023/09/23 10:28:26;;;;;;;;;;;;;;;32.16;73.70;100579.75;5005695;28;69874;-38
2023/09/23 10:31:06;;;;;;;;;;;;;;;32.20;73.41;100580.91;5007142;28;66684;-37
2023/09/23 10:33:36;;;;;;;;;;;;;;;32.20;73.47;100575.50;5006574;28;69153;-38
2023/09/23 10:36:07;;;;;;;;;;;;;;;32.19;74.40;100574.66;5010694;28;67082;-40
2023/09/23 10:38:38;;;;;;;;;;;;;;;32.53;73.07;100579.50;5011460;28;69853;-38
2023/09/23 10:41:08;;;;;;;;;;;;;;;32.69;71.91;100584.19;5011077;28;66816;-38
2023/09/23 10:43:37;;;;;;;;;;;;;;;32.80;71.39;100596.94;5005504;28;69350;-38
2023/09/23 10:46:07;;;;;;;;;;;;;;;32.51;72.53;100592.50;5010295;28;65746;-38
2023/09/23 10:48:37;;;;;;;;;;;;;;;32.44;74.26;100593.41;5013797;28;70487;-37
2023/09/23 10:51:08;;;;;;;;;;;;;;;32.38;74.90;100605.22;5010154;28;65549;-37
2023/09/23 10:53:38;;;;;;;;;;;;;;;32.39;75.35;100606.88;5010037;28;69781;-38
2023/09/23 10:56:10;;;;;;;;;;;;;;;32.33;75.96;100613.25;5009327;28;66987;-37
2023/09/23 10:58:40;;;;;;;;;;;;;;;32.32;76.31;100617.03;5006241;28;69959;-37
2023/09/23 11:01:09;;;;;;;;;;;;;;;32.29;76.03;100620.22;5015538;28;65662;-37
2023/09/23 11:03:42;;;;;;;;;;;;;;;32.28;76.23;100632.97;5008815;28;69403;-37
2023/09/23 11:06:16;;;;;;;;;;;;;;;32.23;76.64;100637.44;5013669;28;65163;-49
2023/09/23 11:08:45;;;;;;;;;;;;;;;32.23;76.67;100645.56;5012687;28;70441;-36
2023/09/23 11:11:15;;;;;;;;;;;;;;;32.21;76.73;100653.16;5009480;28;66523;-36
2023/09/23 11:13:45;;;;;;;;;;;;;;;32.18;76.82;100664.44;5007476;28;70516;-36
2023/09/23 11:16:14;;;;;;;;;;;;;;;32.19;76.81;100666.94;5008912;28;66924;-37
2023/09/23 11:18:45;;;;;;;;;;;;;;;32.16;76.90;100669.31;5007241;28;70618;-37
2023/09/23 11:21:16;;;;;;;;;;;;;;;32.13;76.84;100670.59;5011909;28;66387;-38
2023/09/23 11:23:55;;;;;;;;;;;;;;;32.14;76.88;100663.28;5016858;28;69904;-36
2023/09/23 11:26:24;;;;;;;;;;;;;;;32.10;77.10;100662.94;5018215;28;66745;-37
2023/09/23 11:28:54;;;;;;;;;;;;;;;32.09;76.95;100660.44;4977403;28;70107;-37
2023/09/23 11:31:24;;;;;;;;;;;;;;;32.09;76.93;100650.41;5005918;28;65475;-36
2023/09/23 11:33:53;;;;;;;;;;;;;;;32.04;77.24;100651.13;5021679;28;70747;-36
2023/09/23 11:36:26;;;;;;;;;;;;;;;32.03;77.46;100673.88;5017381;28;66953;-36
2023/09/23 11:38:55;;;;;;;;;;;;;;;32.02;77.67;100672.22;4999953;28;69928;-37
2023/09/23 11:41:25;;;;;;;;;;;;;;;31.99;77.90;100686.25;5012800;28;65427;-38
2023/09/23 11:43:54;;;;;;;;;;;;;;;31.99;77.70;100707.97;5020164;28;69994;-38
2023/09/23 11:46:24;;;;;;;;;;;;;;;31.99;77.99;100729.66;5014942;28;66472;-37
2023/09/23 11:48:54;;;;;;;;;;;;;;;32.00;77.89;100742.16;5016596;28;69571;-36
2023/09/23 11:51:23;;;;;;;;;;;;;;;31.95;77.87;100758.31;5012447;28;66476;-38
2023/09/23 11:53:53;;;;;;;;;;;;;;;31.95;78.31;100757.47;5017056;28;70515;-37
2023/09/23 11:56:22;;;;;;;;;;;;;;;31.96;77.69;100748.31;5006402;28;65711;-37
2023/09/23 11:58:52;;;;;;;;;;;;;;;31.96;77.98;100751.84;5015369;28;69384;-38
2023/09/23 12:01:35;;;;;;;;;;;;;;;31.95;77.86;100771.88;5011526;28;66087;-37
2023/09/23 12:04:05;;;;;;;;;;;;;;;31.93;77.75;100771.28;5010268;28;69938;-36
2023/09/23 12:06:36;;;;;;;;;;;;;;;31.89;77.50;100764.63;5023641;28;66623;-37
2023/09/23 12:09:09;;;;;;;;;;;;;;;31.87;77.59;100761.31;5013922;28;69863;-36
2023/09/23 12:11:39;;;;;;;;;;;;;;;31.86;77.40;100769.69;5020002;28;65961;-38
2023/09/23 12:14:09;;;;;;;;;;;;;;;31.83;77.30;100777.22;5021387;28;70450;-36
2023/09/23 12:16:39;;;;;;;;;;;;;;;31.83;77.29;100782.66;5010734;28;66020;-38
2023/09/23 12:19:11;;;;;;;;;;;;;;;31.80;77.15;100785.00;5019334;28;69178;-37
2023/09/23 12:21:42;;;;;;;;;;;;;;;31.80;77.01;100798.56;5014530;28;66470;-38
2023/09/23 12:24:12;;;;;;;;;;;;;;;31.80;76.95;100801.28;5012314;28;70814;-36
2023/09/23 12:26:41;;;;;;;;;;;;;;;31.78;76.83;100806.09;5017145;28;67166;-36
2023/09/23 12:29:11;;;;;;;;;;;;;;;31.76;76.80;100825.31;5012848;28;69194;-38
2023/09/23 12:31:40;;;;;;;;;;;;;;;31.77;76.93;100820.72;5013791;28;65810;-37
2023/09/23 12:34:10;;;;;;;;;;;;;;;31.75;76.54;100829.06;5018912;28;70862;-36
2023/09/23 12:36:40;;;;;;;;;;;;;;;31.72;76.67;100828.72;4999406;28;65996;-38
2023/09/23 12:39:10;;;;;;;;;;;;;;;31.70;76.74;100823.50;5016440;28;69789;-38
2023/09/23 12:41:40;;;;;;;;;;;;;;;31.69;76.81;100823.75;5024920;28;66882;-38
2023/09/23 12:44:10;;;;;;;;;;;;;;;31.66;76.61;100830.44;5009631;28;70336;-37
2023/09/23 12:46:40;;;;;;;;;;;;;;;31.64;76.82;100823.59;4983496;28;66088;-38
2023/09/23 12:49:10;;;;;;;;;;;;;;;31.63;76.86;100828.19;5021571;28;69374;-37
2023/09/23 12:51:41;;;;;;;;;;;;;;;31.63;77.13;100827.38;5015886;28;66419;-37